Detalii statie AGRICHIM STEFAN CEL MARE [0000198F]

Toti senzorii

Date Temperatura solului [C]Precipitatii [mm]Voltaj baterie [mV]HC Air temperature [C]HC Relative humidity [%]Punctul de roua [C]
medieminmaxsumaultimamedieminmaxmediemediemin
2018-06-20 10:00:00 21.2 21.2 21.3 0 7254 29.44 28.57 30.25 0 0 0
2018-06-20 11:00:00 21.3 21.2 21.4 0 7254 31.85 30.29 33.16 0 0 0
2018-06-20 12:00:00 21.6 21.5 21.9 0 7254 33.24 32.72 34.39 0 0 0
2018-06-20 13:00:00 22.2 22 22.5 0 7254 33.94 30.8 35.56 0 0 0
2018-06-20 14:00:00 22.9 22.6 23.2 0 7254 34.77 33.59 35.42 0 0 0
2018-06-20 15:00:00 23.7 23.4 24.1 0 7254 34.67 34.29 35.14 0 0 0
2018-06-20 16:00:00 24.2 23.8 24.7 0 7246 34.39 33.49 35.2 0 0 0
2018-06-20 17:00:00 24.7 24.6 24.9 0 7070 32.5 31.73 33.92 0 0 0
2018-06-20 18:00:00 24.7 24.6 24.9 0 7030 31.39 30.88 31.73 0 0 0
2018-06-20 19:00:00 24.5 24.4 24.7 0 6962 30.18 29.29 31 0 0 0
2018-06-20 20:00:00 24.3 24.1 24.5 0 6904 27.8 26.55 29.28 0 0 0
2018-06-20 21:00:00 24.1 24 24.4 0 6884 24.53 23.46 26.23 0 0 0
2018-06-20 22:00:00 23.8 23.7 24.1 0 6884 22.43 21.72 23.19 0 0 0
2018-06-20 23:00:00 23.5 23.3 23.8 0 6864 21.89 21.57 22.08 0 0 0
2018-06-21 00:00:00 23.3 23.1 23.4 0 6864 21.85 21.41 22.38 0 0 0
2018-06-21 01:00:00 23 22.9 23.3 0 6844 22.38 22.19 22.81 0 0 0
2018-06-21 02:00:00 22.8 22.7 23.1 0 6844 22.59 22.33 22.82 0 0 0
2018-06-21 03:00:00 22.6 22.6 22.8 0 6844 22.39 21.82 22.77 0 0 0
2018-06-21 04:00:00 22.5 22.4 22.7 0 6844 21.42 20.83 21.93 0 0 0
2018-06-21 05:00:00 22.4 22.2 22.6 0 6826 21.7 21.43 21.94 0 0 0
2018-06-21 06:00:00 22.3 22.3 22.4 0 6874 21.84 21.69 22.05 0 0 0
2018-06-21 07:00:00 22.2 22.2 22.3 0 7020 23.42 21.79 25.41 0 0 0
2018-06-21 08:00:00 22.2 22.1 22.3 0 7088 25.14 24.65 25.71 0 0 0
2018-06-21 09:00:00 22.2 22.2 22.3 0 7254 26.65 26.11 27.26 0 0 0
2018-06-21 10:00:00 22.3 22.3 22.4 0 7236 27.66 27.24 28.33 0 0 0
2018-06-21 11:00:00 22.5 22.4 22.7 0 7254 29.19 27.54 30.43 0 0 0
2018-06-21 12:00:00 22.7 22.4 22.9 0 7254 32.42 30.75 33.88 0 0 0
2018-06-21 13:00:00 23.1 22.9 23.4 0 7236 31.91 30.48 34.08 0 0 0
2018-06-21 14:00:00 23.5 23.3 23.7 0 7098 31.03 30.25 33.3 0 0 0
2018-06-21 15:00:00 23.7 23.6 23.8 5.8 7010 24.71 20.87 30.1 0 0 0
2018-06-21 16:00:00 23.5 23.1 23.8 7.6 6952 20.4 20.03 20.8 0 0 0
2018-06-21 17:00:00 23.2 23.1 23.3 0 7030 21.13 20.76 21.86 0 0 0
2018-06-21 18:00:00 23 22.9 23.2 0 7128 22.1 21.3 22.6 0 0 0
2018-06-21 19:00:00 22.9 22.8 23.2 0 7246 23.19 22.65 23.59 0 0 0
2018-06-21 20:00:00 22.8 22.8 23.1 0 7010 22.58 21.79 23.07 0 0 0
2018-06-21 21:00:00 22.8 22.7 23 0 6972 21.07 20.64 21.58 0 0 0
2018-06-21 22:00:00 22.7 22.7 22.9 0 6942 20.45 19.99 21.04 0 0 0
2018-06-21 23:00:00 22.5 22.5 22.8 0 6914 19.83 19.69 19.93 0 0 0
2018-06-22 00:00:00 22.4 22.2 22.6 0 6894 19.65 19.36 19.98 0 0 0
2018-06-22 01:00:00 22.3 22.3 22.4 0 6864 19.37 18.94 19.7 0 0 0
2018-06-22 02:00:00 22.1 22 22.3 0 6874 19.01 18.52 19.53 0 0 0
2018-06-22 03:00:00 22 21.8 22.1 0 6844 18.5 18.32 18.74 0 0 0
2018-06-22 04:00:00 21.8 21.8 22 0 6834 18.19 18.06 18.34 0 0 0
2018-06-22 05:00:00 21.7 21.6 21.9 0 6844 18.19 17.99 18.37 0 0 0
2018-06-22 06:00:00 21.6 21.6 21.8 0 6884 18.83 18.49 19.33 0 0 0
2018-06-22 07:00:00 21.5 21.4 21.7 0 7030 20.26 19.47 21.07 0 0 0